sensor_id;sensor_type;location;lat;lon;timestamp;temperature;humidity
23769;DHT22;12064;50.890;5.424;2022-09-17T00:08:18;26.70;67.30
23769;DHT22;12064;50.890;5.424;2022-09-17T00:17:08;26.70;67.20
23769;DHT22;12064;50.890;5.424;2022-09-17T00:26:04;26.70;67.10
23769;DHT22;12064;50.890;5.424;2022-09-17T00:34:55;26.60;67.20
23769;DHT22;12064;50.890;5.424;2022-09-17T00:43:52;26.60;67.20
23769;DHT22;12064;50.890;5.424;2022-09-17T00:52:49;26.60;67.20
23769;DHT22;12064;50.890;5.424;2022-09-17T01:01:45;26.60;67.00
23769;DHT22;12064;50.890;5.424;2022-09-17T01:19:59;26.50;67.20
23769;DHT22;12064;50.890;5.424;2022-09-17T01:29:18;26.50;66.90
23769;DHT22;12064;50.890;5.424;2022-09-17T01:56:14;26.50;67.00
23769;DHT22;12064;50.890;5.424;2022-09-17T02:05:16;26.50;67.10
23769;DHT22;12064;50.890;5.424;2022-09-17T02:14:19;26.40;67.20
23769;DHT22;12064;50.890;5.424;2022-09-17T02:23:26;26.40;67.30
23769;DHT22;12064;50.890;5.424;2022-09-17T02:32:31;26.40;67.10
23769;DHT22;12064;50.890;5.424;2022-09-17T02:41:25;26.40;67.20
23769;DHT22;12064;50.890;5.424;2022-09-17T03:09:13;26.40;67.20
23769;DHT22;12064;50.890;5.424;2022-09-17T03:18:04;26.50;66.90
23769;DHT22;12064;50.890;5.424;2022-09-17T03:26:54;26.50;66.90
23769;DHT22;12064;50.890;5.424;2022-09-17T03:35:46;26.40;67.10
23769;DHT22;12064;50.890;5.424;2022-09-17T03:44:36;26.50;66.90
23769;DHT22;12064;50.890;5.424;2022-09-17T03:53:27;26.50;67.00
23769;DHT22;12064;50.890;5.424;2022-09-17T04:02:25;26.50;66.90
23769;DHT22;12064;50.890;5.424;2022-09-17T04:11:15;26.40;67.00
23769;DHT22;12064;50.890;5.424;2022-09-17T04:20:06;26.40;66.90
23769;DHT22;12064;50.890;5.424;2022-09-17T04:28:57;26.40;66.80
23769;DHT22;12064;50.890;5.424;2022-09-17T04:37:52;26.40;66.90
23769;DHT22;12064;50.890;5.424;2022-09-17T04:46:43;26.40;66.90
23769;DHT22;12064;50.890;5.424;2022-09-17T04:55:34;26.30;67.00
23769;DHT22;12064;50.890;5.424;2022-09-17T05:04:31;26.40;66.90
23769;DHT22;12064;50.890;5.424;2022-09-17T05:13:24;26.20;67.00
23769;DHT22;12064;50.890;5.424;2022-09-17T05:22:27;26.30;67.00
23769;DHT22;12064;50.890;5.424;2022-09-17T05:31:18;26.20;67.10
23769;DHT22;12064;50.890;5.424;2022-09-17T05:40:09;26.20;67.40
23769;DHT22;12064;50.890;5.424;2022-09-17T05:48:59;26.40;66.90
23769;DHT22;12064;50.890;5.424;2022-09-17T05:57:50;26.40;66.70
23769;DHT22;12064;50.890;5.424;2022-09-17T06:06:41;26.30;66.60
23769;DHT22;12064;50.890;5.424;2022-09-17T06:15:32;26.40;66.50
23769;DHT22;12064;50.890;5.424;2022-09-17T06:24:22;26.20;67.20
23769;DHT22;12064;50.890;5.424;2022-09-17T06:33:16;26.40;66.30
23769;DHT22;12064;50.890;5.424;2022-09-17T06:42:10;26.30;66.30
23769;DHT22;12064;50.890;5.424;2022-09-17T06:51:04;26.30;66.10
23769;DHT22;12064;50.890;5.424;2022-09-17T06:59:57;26.20;65.80
23769;DHT22;12064;50.890;5.424;2022-09-17T07:08:49;26.30;65.70
23769;DHT22;12064;50.890;5.424;2022-09-17T07:18:05;26.30;66.00
23769;DHT22;12064;50.890;5.424;2022-09-17T07:26:57;26.00;66.50
23769;DHT22;12064;50.890;5.424;2022-09-17T07:35:55;25.50;68.20
23769;DHT22;12064;50.890;5.424;2022-09-17T07:44:48;25.80;67.50
23769;DHT22;12064;50.890;5.424;2022-09-17T07:53:55;26.20;65.80
23769;DHT22;12064;50.890;5.424;2022-09-17T08:12:34;26.60;64.90
23769;DHT22;12064;50.890;5.424;2022-09-17T08:21:27;26.50;65.40
23769;DHT22;12064;50.890;5.424;2022-09-17T08:30:19;26.70;65.20
23769;DHT22;12064;50.890;5.424;2022-09-17T08:39:09;26.70;64.20
23769;DHT22;12064;50.890;5.424;2022-09-17T08:48:02;26.60;65.50
23769;DHT22;12064;50.890;5.424;2022-09-17T08:57:39;26.60;64.90
23769;DHT22;12064;50.890;5.424;2022-09-17T09:06:41;26.50;65.20
23769;DHT22;12064;50.890;5.424;2022-09-17T09:16:01;26.80;64.20
23769;DHT22;12064;50.890;5.424;2022-09-17T09:33:54;26.80;64.30
23769;DHT22;12064;50.890;5.424;2022-09-17T09:42:46;26.80;64.10
23769;DHT22;12064;50.890;5.424;2022-09-17T10:00:40;26.80;64.00
23769;DHT22;12064;50.890;5.424;2022-09-17T10:09:35;26.80;63.90
23769;DHT22;12064;50.890;5.424;2022-09-17T10:18:26;26.80;63.80
23769;DHT22;12064;50.890;5.424;2022-09-17T10:27:18;26.70;64.30
23769;DHT22;12064;50.890;5.424;2022-09-17T10:36:13;26.40;64.70
23769;DHT22;12064;50.890;5.424;2022-09-17T10:45:23;26.50;64.10
23769;DHT22;12064;50.890;5.424;2022-09-17T11:13:15;26.20;65.40
23769;DHT22;12064;50.890;5.424;2022-09-17T11:22:16;26.80;64.00
23769;DHT22;12064;50.890;5.424;2022-09-17T11:49:49;26.80;64.20
23769;DHT22;12064;50.890;5.424;2022-09-17T12:08:21;26.60;64.50
23769;DHT22;12064;50.890;5.424;2022-09-17T12:17:43;26.30;65.10
23769;DHT22;12064;50.890;5.424;2022-09-17T12:36:25;26.50;65.20
23769;DHT22;12064;50.890;5.424;2022-09-17T13:03:34;26.20;65.60
23769;DHT22;12064;50.890;5.424;2022-09-17T13:12:34;26.40;63.40
23769;DHT22;12064;50.890;5.424;2022-09-17T13:30:58;26.40;61.80
23769;DHT22;12064;50.890;5.424;2022-09-17T13:39:50;26.50;61.30
23769;DHT22;12064;50.890;5.424;2022-09-17T13:48:46;26.70;61.00
23769;DHT22;12064;50.890;5.424;2022-09-17T13:57:48;26.70;61.30
23769;DHT22;12064;50.890;5.424;2022-09-17T14:25:51;26.70;62.80
23769;DHT22;12064;50.890;5.424;2022-09-17T14:34:48;26.40;63.90
23769;DHT22;12064;50.890;5.424;2022-09-17T14:43:51;26.80;64.00
23769;DHT22;12064;50.890;5.424;2022-09-17T14:52:47;27.00;64.20
23769;DHT22;12064;50.890;5.424;2022-09-17T15:01:45;27.00;64.10
23769;DHT22;12064;50.890;5.424;2022-09-17T15:10:51;27.00;63.80
23769;DHT22;12064;50.890;5.424;2022-09-17T15:19:45;26.90;64.00
23769;DHT22;12064;50.890;5.424;2022-09-17T15:28:41;26.90;64.20
23769;DHT22;12064;50.890;5.424;2022-09-17T15:37:46;26.80;64.90
23769;DHT22;12064;50.890;5.424;2022-09-17T15:46:40;26.70;64.80
23769;DHT22;12064;50.890;5.424;2022-09-17T16:05:41;26.60;65.40
23769;DHT22;12064;50.890;5.424;2022-09-17T16:14:28;26.70;65.60
23769;DHT22;12064;50.890;5.424;2022-09-17T16:23:21;26.40;66.70
23769;DHT22;12064;50.890;5.424;2022-09-17T16:32:12;26.10;67.20
23769;DHT22;12064;50.890;5.424;2022-09-17T16:41:05;26.60;66.10
23769;DHT22;12064;50.890;5.424;2022-09-17T16:49:58;27.00;65.30
23769;DHT22;12064;50.890;5.424;2022-09-17T16:58:53;26.90;65.00
23769;DHT22;12064;50.890;5.424;2022-09-17T17:07:47;26.80;65.10
23769;DHT22;12064;50.890;5.424;2022-09-17T17:16:37;26.80;65.00
23769;DHT22;12064;50.890;5.424;2022-09-17T17:25:30;26.70;65.10
23769;DHT22;12064;50.890;5.424;2022-09-17T17:34:21;26.80;65.10
23769;DHT22;12064;50.890;5.424;2022-09-17T17:43:12;26.80;65.00
23769;DHT22;12064;50.890;5.424;2022-09-17T17:52:06;26.80;64.80
23769;DHT22;12064;50.890;5.424;2022-09-17T18:00:56;26.70;65.10
23769;DHT22;12064;50.890;5.424;2022-09-17T18:09:47;26.70;65.20
23769;DHT22;12064;50.890;5.424;2022-09-17T18:18:41;26.60;65.00
23769;DHT22;12064;50.890;5.424;2022-09-17T18:27:32;26.00;66.50
23769;DHT22;12064;50.890;5.424;2022-09-17T18:36:24;26.20;67.10
23769;DHT22;12064;50.890;5.424;2022-09-17T18:45:18;26.10;67.30
23769;DHT22;12064;50.890;5.424;2022-09-17T18:54:10;25.90;67.90
23769;DHT22;12064;50.890;5.424;2022-09-17T19:03:02;25.90;67.70
23769;DHT22;12064;50.890;5.424;2022-09-17T19:11:55;26.20;66.80
23769;DHT22;12064;50.890;5.424;2022-09-17T19:20:48;25.80;67.80
23769;DHT22;12064;50.890;5.424;2022-09-17T19:29:39;26.80;66.90
23769;DHT22;12064;50.890;5.424;2022-09-17T19:38:33;26.70;66.90
23769;DHT22;12064;50.890;5.424;2022-09-17T19:47:23;26.70;67.20
23769;DHT22;12064;50.890;5.424;2022-09-17T19:56:16;27.00;66.60
23769;DHT22;12064;50.890;5.424;2022-09-17T20:05:07;26.90;67.10
23769;DHT22;12064;50.890;5.424;2022-09-17T20:14:00;27.20;66.30
23769;DHT22;12064;50.890;5.424;2022-09-17T20:22:57;27.10;66.40
23769;DHT22;12064;50.890;5.424;2022-09-17T20:31:47;27.10;66.60
23769;DHT22;12064;50.890;5.424;2022-09-17T20:40:40;27.10;67.30
23769;DHT22;12064;50.890;5.424;2022-09-17T20:49:31;27.20;67.00
23769;DHT22;12064;50.890;5.424;2022-09-17T20:58:23;27.20;67.20
23769;DHT22;12064;50.890;5.424;2022-09-17T21:07:17;27.40;66.70
23769;DHT22;12064;50.890;5.424;2022-09-17T21:16:08;27.10;67.30
23769;DHT22;12064;50.890;5.424;2022-09-17T21:24:59;27.10;67.50
23769;DHT22;12064;50.890;5.424;2022-09-17T21:33:53;27.30;68.30
23769;DHT22;12064;50.890;5.424;2022-09-17T21:42:47;27.00;65.40
23769;DHT22;12064;50.890;5.424;2022-09-17T21:51:40;26.90;65.70
23769;DHT22;12064;50.890;5.424;2022-09-17T22:00:34;26.80;65.80
23769;DHT22;12064;50.890;5.424;2022-09-17T22:09:25;26.70;65.60
23769;DHT22;12064;50.890;5.424;2022-09-17T22:18:15;26.60;65.70
23769;DHT22;12064;50.890;5.424;2022-09-17T22:27:09;26.60;65.80
23769;DHT22;12064;50.890;5.424;2022-09-17T22:36:11;26.60;65.60
23769;DHT22;12064;50.890;5.424;2022-09-17T22:45:02;26.40;66.10
23769;DHT22;12064;50.890;5.424;2022-09-17T22:53:57;26.50;65.90
23769;DHT22;12064;50.890;5.424;2022-09-17T23:02:51;26.40;66.20
23769;DHT22;12064;50.890;5.424;2022-09-17T23:11:42;26.40;66.20
23769;DHT22;12064;50.890;5.424;2022-09-17T23:20:32;26.40;66.00
23769;DHT22;12064;50.890;5.424;2022-09-17T23:29:27;26.30;66.80
23769;DHT22;12064;50.890;5.424;2022-09-17T23:38:18;26.30;66.10
23769;DHT22;12064;50.890;5.424;2022-09-17T23:47:09;26.30;66.00
23769;DHT22;12064;50.890;5.424;2022-09-17T23:56:00;26.30;66.80
